createdAt,value
2022-09-22T00:01:31.816Z,6.39
2022-09-22T00:04:01.575Z,6.39
2022-09-22T00:06:31.310Z,6.40
2022-09-22T00:09:01.992Z,6.39
2022-09-22T00:11:30.983Z,6.40
2022-09-22T00:14:00.420Z,6.43
2022-09-22T00:16:29.732Z,6.43
2022-09-22T00:18:57.647Z,6.45
2022-09-22T00:21:27.928Z,6.45
2022-09-22T00:23:56.270Z,6.41
2022-09-22T00:26:25.994Z,6.39
2022-09-22T00:28:53.988Z,6.41
2022-09-22T00:31:23.880Z,6.40
2022-09-22T00:33:51.866Z,6.32
2022-09-22T00:36:22.054Z,6.35
2022-09-22T00:38:51.369Z,6.36
2022-09-22T00:41:20.949Z,6.35
2022-09-22T00:43:51.471Z,6.38
2022-09-22T00:46:21.944Z,6.41
2022-09-22T00:48:51.606Z,6.41
2022-09-22T00:51:23.657Z,6.37
2022-09-22T00:53:52.046Z,6.35
2022-09-22T00:56:22.496Z,6.34
2022-09-22T00:58:54.969Z,6.35
2022-09-22T01:01:22.870Z,6.30
2022-09-22T01:03:51.589Z,6.24
2022-09-22T01:06:22.869Z,6.21
2022-09-22T01:08:50.886Z,6.20
2022-09-22T01:11:20.738Z,6.19
2022-09-22T01:13:54.880Z,6.16
2022-09-22T01:16:36.019Z,5.99
2022-09-22T01:19:21.311Z,5.94
2022-09-22T01:21:52.119Z,5.92
2022-09-22T01:24:55.269Z,5.96
2022-09-22T01:27:31.915Z,5.87
2022-09-22T01:30:19.778Z,5.82
2022-09-22T01:33:10.858Z,5.82
2022-09-22T01:35:46.165Z,5.86
2022-09-22T01:38:18.148Z,5.86
2022-09-22T01:40:50.722Z,5.79
2022-09-22T01:43:25.003Z,5.73
2022-09-22T01:45:55.185Z,5.65
2022-09-22T01:48:25.904Z,5.67
2022-09-22T01:50:56.433Z,5.70
2022-09-22T01:53:27.373Z,5.65
2022-09-22T01:55:57.996Z,5.39
2022-09-22T01:58:30.113Z,5.24
2022-09-22T02:01:02.125Z,5.01
2022-09-22T02:03:36.372Z,4.96
2022-09-22T02:06:07.408Z,4.91
2022-09-22T02:08:38.048Z,4.87
2022-09-22T02:11:10.897Z,4.85
2022-09-22T02:13:38.839Z,4.88
2022-09-22T02:16:09.067Z,4.82
2022-09-22T02:18:41.955Z,4.72
2022-09-22T02:21:10.067Z,4.70
2022-09-22T02:23:38.056Z,4.72
2022-09-22T02:26:07.122Z,4.70
2022-09-22T02:28:37.829Z,4.67
2022-09-22T02:31:24.819Z,4.74
2022-09-22T02:33:53.199Z,4.76
2022-09-22T02:36:35.909Z,4.78
2022-09-22T02:39:08.398Z,4.76
2022-09-22T02:41:42.083Z,4.66
2022-09-22T02:44:15.056Z,4.57
2022-09-22T02:46:47.621Z,4.60
2022-09-22T02:49:18.203Z,4.60
2022-09-22T02:51:47.058Z,4.55
2022-09-22T02:54:15.338Z,4.45
2022-09-22T02:56:43.525Z,4.43
2022-09-22T02:59:11.487Z,4.46
2022-09-22T03:01:39.675Z,4.47
2022-09-22T03:04:09.037Z,4.51
2022-09-22T03:06:36.800Z,4.54
2022-09-22T03:09:05.116Z,4.59
2022-09-22T03:11:33.047Z,4.59
2022-09-22T03:14:00.981Z,4.59
2022-09-22T03:16:30.172Z,4.59
2022-09-22T03:18:58.500Z,4.59
2022-09-22T03:21:27.703Z,4.50
2022-09-22T03:23:55.430Z,4.53
2022-09-22T03:26:23.099Z,4.51
2022-09-22T03:28:50.892Z,4.53
2022-09-22T03:31:18.776Z,4.56
2022-09-22T03:33:51.907Z,4.58
2022-09-22T03:36:20.462Z,4.57
2022-09-22T03:38:50.023Z,4.57
2022-09-22T03:41:17.892Z,4.56
2022-09-22T03:43:45.705Z,4.53
2022-09-22T03:46:14.396Z,4.52
2022-09-22T03:48:45.149Z,4.54
2022-09-22T03:51:13.255Z,4.54
2022-09-22T03:53:41.386Z,4.50
2022-09-22T03:56:13.099Z,4.47
2022-09-22T03:58:41.736Z,4.42
2022-09-22T04:01:11.229Z,4.35
2022-09-22T04:03:39.433Z,4.30
2022-09-22T04:06:08.031Z,4.29
2022-09-22T04:08:35.727Z,4.26
2022-09-22T04:11:03.727Z,4.24
2022-09-22T04:13:32.828Z,4.23
2022-09-22T04:16:00.380Z,4.23
2022-09-22T04:18:29.465Z,4.22
2022-09-22T04:20:58.290Z,4.21
2022-09-22T04:23:26.422Z,4.20
2022-09-22T04:25:54.494Z,4.19
2022-09-22T04:28:25.086Z,4.19
2022-09-22T04:30:54.256Z,4.13
2022-09-22T04:33:22.246Z,4.10
2022-09-22T04:35:50.131Z,4.06
2022-09-22T04:38:18.219Z,4.10
2022-09-22T04:40:46.138Z,4.14
2022-09-22T04:43:13.991Z,4.18
2022-09-22T04:45:45.126Z,4.23
2022-09-22T04:48:14.174Z,4.24
2022-09-22T04:50:47.187Z,4.20
2022-09-22T04:53:15.798Z,4.14
2022-09-22T04:55:43.391Z,4.14
2022-09-22T04:58:11.356Z,4.14
2022-09-22T05:00:39.189Z,4.15
2022-09-22T05:03:09.316Z,4.12
2022-09-22T05:05:38.522Z,4.10
2022-09-22T05:08:07.666Z,4.09
2022-09-22T05:10:36.742Z,4.02
2022-09-22T05:13:05.747Z,3.98
2022-09-22T05:15:34.663Z,3.98
2022-09-22T05:18:02.493Z,3.96
2022-09-22T05:20:30.121Z,3.98
2022-09-22T05:22:59.176Z,3.97
2022-09-22T05:25:26.813Z,3.98
2022-09-22T05:27:56.226Z,3.91
2022-09-22T05:30:25.927Z,3.86
2022-09-22T05:32:53.933Z,3.88
2022-09-22T05:35:23.447Z,3.95
2022-09-22T05:37:53.655Z,4.01
2022-09-22T05:40:24.929Z,4.08
2022-09-22T05:42:53.995Z,4.15
2022-09-22T05:45:22.541Z,4.18
2022-09-22T05:47:50.305Z,4.23
2022-09-22T05:50:19.387Z,4.28
2022-09-22T05:52:46.992Z,4.37
2022-09-22T05:55:15.147Z,4.45
2022-09-22T05:57:44.626Z,4.55
2022-09-22T06:00:27.816Z,4.61
2022-09-22T06:02:55.572Z,4.71
2022-09-22T06:05:23.349Z,4.78
2022-09-22T06:07:59.629Z,4.91
2022-09-22T06:10:27.543Z,5.01
2022-09-22T06:13:00.197Z,5.12
2022-09-22T06:15:28.615Z,5.24
2022-09-22T06:17:56.439Z,5.35
2022-09-22T06:20:24.225Z,5.44
2022-09-22T06:22:51.887Z,5.52
2022-09-22T06:25:19.458Z,5.65
2022-09-22T06:27:47.206Z,5.78
2022-09-22T06:30:16.325Z,5.91
2022-09-22T06:32:46.001Z,6.00
2022-09-22T06:35:13.563Z,6.04
2022-09-22T06:37:41.778Z,5.94
2022-09-22T06:40:12.963Z,5.95
2022-09-22T06:42:44.249Z,6.07
2022-09-22T06:45:14.681Z,6.21
2022-09-22T06:47:43.593Z,6.35
2022-09-22T06:50:11.188Z,6.47
2022-09-22T06:52:38.880Z,6.65
2022-09-22T06:55:07.463Z,6.62
2022-09-22T06:57:35.012Z,6.71
2022-09-22T07:00:03.787Z,6.86
2022-09-22T07:02:31.399Z,7.08
2022-09-22T07:05:00.366Z,7.22
2022-09-22T07:07:28.826Z,7.36
2022-09-22T07:09:56.848Z,7.53
2022-09-22T07:12:25.388Z,7.69
2022-09-22T07:14:54.131Z,7.84
2022-09-22T07:17:21.689Z,7.97
2022-09-22T07:19:51.100Z,8.20
2022-09-22T07:22:20.208Z,8.31
2022-09-22T07:24:47.795Z,8.49
2022-09-22T07:27:20.447Z,8.62
2022-09-22T07:29:48.828Z,8.48
2022-09-22T07:32:16.444Z,8.62
2022-09-22T07:34:45.075Z,8.93
2022-09-22T07:37:15.768Z,9.22
2022-09-22T07:39:45.270Z,9.42
2022-09-22T07:42:12.995Z,9.65
2022-09-22T07:44:57.956Z,9.77
2022-09-22T07:47:39.489Z,9.93
2022-09-22T07:50:07.756Z,10.19
2022-09-22T07:52:35.357Z,10.31
2022-09-22T07:55:04.509Z,10.56
2022-09-22T07:57:32.552Z,10.78
2022-09-22T08:00:00.418Z,10.96
2022-09-22T08:02:29.159Z,11.18
2022-09-22T08:05:02.820Z,11.26
2022-09-22T08:07:31.351Z,11.43
2022-09-22T08:09:59.182Z,11.70
2022-09-22T08:12:28.413Z,11.82
2022-09-22T08:14:57.960Z,11.97
2022-09-22T08:17:25.624Z,12.17
2022-09-22T08:19:53.244Z,12.37
2022-09-22T08:22:20.841Z,12.32
2022-09-22T08:24:48.387Z,12.52
2022-09-22T08:27:15.987Z,12.64
2022-09-22T08:29:44.900Z,12.83
2022-09-22T08:32:12.494Z,12.91
2022-09-22T08:34:40.083Z,12.86
2022-09-22T08:37:07.689Z,13.05
2022-09-22T08:39:36.686Z,13.22
2022-09-22T08:42:10.191Z,13.29
2022-09-22T08:44:41.241Z,13.33
2022-09-22T08:47:17.635Z,13.38
2022-09-22T08:50:05.855Z,13.46
2022-09-22T08:52:38.936Z,13.77
2022-09-22T08:55:08.512Z,13.83
2022-09-22T08:57:56.983Z,13.62
2022-09-22T09:00:25.648Z,13.66
2022-09-22T09:03:03.113Z,14.05
2022-09-22T09:05:50.883Z,14.26
2022-09-22T09:08:32.601Z,14.41
2022-09-22T09:11:08.131Z,14.42
2022-09-22T09:13:46.315Z,14.69
2022-09-22T09:16:28.607Z,14.94
2022-09-22T09:19:01.897Z,14.99
2022-09-22T09:21:30.192Z,15.05
2022-09-22T09:26:52.240Z,15.17
2022-09-22T09:29:24.112Z,15.31
2022-09-22T09:31:53.508Z,15.17
2022-09-22T09:34:24.258Z,15.30
2022-09-22T09:36:55.489Z,15.24
2022-09-22T09:39:29.215Z,14.88
2022-09-22T09:41:57.374Z,15.06
2022-09-22T09:44:29.678Z,15.05
2022-09-22T09:47:03.239Z,15.23
2022-09-22T09:49:32.316Z,15.43
2022-09-22T09:52:02.359Z,15.44
2022-09-22T09:54:30.913Z,15.41
2022-09-22T09:57:10.219Z,15.19
2022-09-22T09:59:56.692Z,15.45
2022-09-22T10:02:27.430Z,15.70
2022-09-22T10:04:57.327Z,15.70
2022-09-22T10:07:27.062Z,15.73
2022-09-22T10:09:56.055Z,15.80
2022-09-22T10:12:28.579Z,16.02
2022-09-22T10:14:57.473Z,16.19
2022-09-22T10:17:29.117Z,15.97
2022-09-22T10:20:17.926Z,15.49
2022-09-22T10:22:45.588Z,15.49
2022-09-22T10:25:22.678Z,15.70
2022-09-22T10:28:14.531Z,16.00
2022-09-22T10:30:43.592Z,16.02
2022-09-22T10:33:17.224Z,16.24
2022-09-22T10:35:47.410Z,15.82
2022-09-22T10:38:22.798Z,16.36
2022-09-22T10:40:56.389Z,16.34
2022-09-22T10:43:35.527Z,16.49
2022-09-22T10:46:17.100Z,16.51
2022-09-22T10:48:48.841Z,16.75
2022-09-22T10:51:28.348Z,16.87
2022-09-22T10:54:14.284Z,17.11
2022-09-22T10:56:44.765Z,16.94
2022-09-22T10:59:33.574Z,16.98
2022-09-22T11:02:18.187Z,16.74
2022-09-22T11:04:55.612Z,16.40
2022-09-22T11:08:06.830Z,16.71
2022-09-22T11:10:56.525Z,16.87
2022-09-22T11:13:34.977Z,16.70
2022-09-22T11:16:35.247Z,16.84
2022-09-22T11:19:40.282Z,17.22
2022-09-22T11:22:27.394Z,17.37
2022-09-22T11:25:08.619Z,16.89
2022-09-22T11:27:46.008Z,17.07
2022-09-22T11:30:20.421Z,17.21
2022-09-22T11:33:13.182Z,17.55
2022-09-22T11:35:45.889Z,17.54
2022-09-22T11:38:24.321Z,17.74
2022-09-22T11:41:14.061Z,17.13
2022-09-22T11:43:52.640Z,17.50
2022-09-22T11:46:24.241Z,17.70
2022-09-22T11:49:03.860Z,17.56
2022-09-22T11:51:55.946Z,17.68
2022-09-22T11:54:32.241Z,17.18
2022-09-22T11:57:04.465Z,17.39
2022-09-22T11:59:34.424Z,17.59
2022-09-22T12:02:05.965Z,17.70
2022-09-22T12:04:38.607Z,17.62
2022-09-22T12:07:10.348Z,17.39
2022-09-22T12:09:40.811Z,17.65
2022-09-22T12:12:13.184Z,17.80
2022-09-22T12:14:41.574Z,17.87
2022-09-22T12:17:12.611Z,18.27
2022-09-22T12:19:49.937Z,18.39
2022-09-22T12:22:22.717Z,18.23
2022-09-22T12:24:50.512Z,18.24
2022-09-22T12:27:22.400Z,17.80
2022-09-22T12:29:57.969Z,17.60
2022-09-22T12:32:35.400Z,17.68
2022-09-22T12:35:03.323Z,17.76
2022-09-22T12:37:32.919Z,17.79
2022-09-22T12:40:07.999Z,18.04
2022-09-22T12:42:38.370Z,18.23
2022-09-22T12:45:11.189Z,18.02
2022-09-22T12:47:40.739Z,18.05
2022-09-22T12:50:32.923Z,17.74
2022-09-22T12:53:04.343Z,17.70
2022-09-22T12:55:38.407Z,17.47
2022-09-22T12:58:43.684Z,17.26
2022-09-22T13:01:34.600Z,17.75
2022-09-22T13:04:17.362Z,17.81
2022-09-22T13:06:58.957Z,17.80
2022-09-22T13:09:29.958Z,17.92
2022-09-22T13:12:21.536Z,17.87
2022-09-22T13:15:20.855Z,17.99
2022-09-22T13:17:49.544Z,17.85
2022-09-22T13:20:20.256Z,18.00
2022-09-22T13:22:47.918Z,18.00
2022-09-22T13:25:26.926Z,18.17
2022-09-22T13:28:10.575Z,18.12
2022-09-22T13:30:40.562Z,18.21
2022-09-22T13:33:18.974Z,17.96
2022-09-22T13:35:46.746Z,17.75
2022-09-22T13:38:15.681Z,18.10
2022-09-22T13:40:47.975Z,18.12
2022-09-22T13:43:22.970Z,17.91
2022-09-22T13:45:52.717Z,17.92
2022-09-22T13:48:21.204Z,17.53
2022-09-22T13:50:52.032Z,17.46
2022-09-22T13:53:20.335Z,17.72
2022-09-22T13:55:49.728Z,17.66
2022-09-22T13:58:23.591Z,17.79
2022-09-22T14:01:14.351Z,17.76
2022-09-22T14:03:42.558Z,17.54
2022-09-22T14:06:11.779Z,17.28
2022-09-22T14:08:39.679Z,17.22
2022-09-22T14:11:12.481Z,17.03
2022-09-22T14:13:42.235Z,17.18
2022-09-22T14:16:18.076Z,17.19
2022-09-22T14:18:48.797Z,17.18
2022-09-22T14:21:16.608Z,17.30
2022-09-22T14:23:45.697Z,17.31
2022-09-22T14:26:33.254Z,17.41
2022-09-22T14:29:09.245Z,17.35
2022-09-22T14:31:39.977Z,17.41
2022-09-22T14:34:09.304Z,17.47
2022-09-22T14:36:37.856Z,17.35
2022-09-22T14:39:09.971Z,17.35
2022-09-22T14:41:39.434Z,17.38
2022-09-22T14:44:26.435Z,17.14
2022-09-22T14:46:57.308Z,17.10
2022-09-22T14:49:39.446Z,17.07
2022-09-22T14:52:08.687Z,17.02
2022-09-22T14:54:38.979Z,17.00
2022-09-22T14:57:08.775Z,16.83
2022-09-22T14:59:52.083Z,16.71
2022-09-22T15:02:33.370Z,16.68
2022-09-22T15:05:03.428Z,16.52
2022-09-22T15:07:32.679Z,16.49
2022-09-22T15:10:02.440Z,16.51
2022-09-22T15:12:37.896Z,16.41
2022-09-22T15:15:16.537Z,16.34
2022-09-22T15:18:04.116Z,16.36
2022-09-22T15:20:38.691Z,16.34
2022-09-22T15:23:06.449Z,16.35
2022-09-22T15:25:34.056Z,16.24
2022-09-22T15:28:06.581Z,16.24
2022-09-22T15:30:34.198Z,16.13
2022-09-22T15:33:03.808Z,16.13
2022-09-22T15:35:34.552Z,16.00
2022-09-22T15:38:02.216Z,16.01
2022-09-22T15:40:30.078Z,16.05
2022-09-22T15:43:12.313Z,16.02
2022-09-22T15:45:47.662Z,16.03
2022-09-22T15:48:26.084Z,15.97
2022-09-22T15:50:54.602Z,15.82
2022-09-22T15:53:23.004Z,15.68
2022-09-22T15:55:51.322Z,15.59
2022-09-22T15:58:19.369Z,15.62
2022-09-22T16:00:48.288Z,15.44
2022-09-22T16:03:22.274Z,15.32
2022-09-22T16:05:52.445Z,15.39
2022-09-22T16:08:20.800Z,15.34
2022-09-22T16:10:48.428Z,15.29
2022-09-22T16:13:16.064Z,15.26
2022-09-22T16:15:43.720Z,15.14
2022-09-22T16:18:11.326Z,15.08
2022-09-22T16:20:39.036Z,15.04
2022-09-22T16:23:08.005Z,14.94
2022-09-22T16:25:35.665Z,14.93
2022-09-22T16:28:03.657Z,14.81
2022-09-22T16:30:31.238Z,14.73
2022-09-22T16:32:58.822Z,14.66
2022-09-22T16:35:26.405Z,14.59
2022-09-22T16:37:57.153Z,14.56
2022-09-22T16:40:28.723Z,14.23
2022-09-22T16:42:56.440Z,14.19
2022-09-22T16:45:38.966Z,14.21
2022-09-22T16:48:07.356Z,14.08
2022-09-22T16:50:39.373Z,14.08
2022-09-22T16:53:11.139Z,14.09
2022-09-22T16:55:40.274Z,14.00
2022-09-22T16:58:13.081Z,13.92
2022-09-22T17:00:40.784Z,13.83
2022-09-22T17:03:08.446Z,13.73
2022-09-22T17:05:37.969Z,13.70
2022-09-22T17:08:06.919Z,13.64
2022-09-22T17:10:35.533Z,13.59
2022-09-22T17:13:05.229Z,13.44
2022-09-22T17:15:35.645Z,13.30
2022-09-22T17:18:04.132Z,13.27
2022-09-22T17:20:31.800Z,13.15
2022-09-22T17:22:59.423Z,13.04
2022-09-22T17:25:29.248Z,12.96
2022-09-22T17:27:57.670Z,12.85
2022-09-22T17:30:26.920Z,12.82
2022-09-22T17:32:54.744Z,12.77
2022-09-22T17:35:22.698Z,12.61
2022-09-22T17:37:52.236Z,12.49
2022-09-22T17:40:19.957Z,12.44
2022-09-22T17:42:48.353Z,12.34
2022-09-22T17:45:17.419Z,12.21
2022-09-22T17:48:04.120Z,11.94
2022-09-22T17:50:49.262Z,12.05
2022-09-22T17:53:34.788Z,12.16
2022-09-22T17:56:05.154Z,12.19
2022-09-22T17:58:33.490Z,12.21
2022-09-22T18:01:01.170Z,12.16
2022-09-22T18:03:30.264Z,12.14
2022-09-22T18:05:58.339Z,12.09
2022-09-22T18:08:26.263Z,12.05
2022-09-22T18:10:54.433Z,11.97
2022-09-22T18:13:22.718Z,11.91
2022-09-22T18:15:50.934Z,11.84
2022-09-22T18:18:18.583Z,11.79
2022-09-22T18:20:48.378Z,11.73
2022-09-22T18:23:16.716Z,11.67
2022-09-22T18:25:44.410Z,11.61
2022-09-22T18:28:12.109Z,11.50
2022-09-22T18:30:43.377Z,11.45
2022-09-22T18:33:13.478Z,11.31
2022-09-22T18:35:45.444Z,11.16
2022-09-22T18:38:15.239Z,11.12
2022-09-22T18:40:42.975Z,11.01
2022-09-22T18:43:10.920Z,10.98
2022-09-22T18:45:38.589Z,10.93
2022-09-22T18:48:07.826Z,10.94
2022-09-22T18:50:35.820Z,10.89
2022-09-22T18:53:03.625Z,10.81
2022-09-22T18:55:32.811Z,10.69
2022-09-22T18:58:01.096Z,10.63
2022-09-22T19:00:28.925Z,10.51
2022-09-22T19:02:56.941Z,10.50
2022-09-22T19:05:24.906Z,10.45
2022-09-22T19:07:53.523Z,10.43
2022-09-22T19:10:21.841Z,10.34
2022-09-22T19:12:51.125Z,10.18
2022-09-22T19:15:19.488Z,10.10
2022-09-22T19:17:49.424Z,10.02
2022-09-22T19:20:20.899Z,9.96
2022-09-22T19:22:50.374Z,9.96
2022-09-22T19:25:20.039Z,9.90
2022-09-22T19:27:47.824Z,9.95
2022-09-22T19:30:20.518Z,9.87
2022-09-22T19:32:50.451Z,9.85
2022-09-22T19:35:18.200Z,9.79
2022-09-22T19:37:45.909Z,9.77
2022-09-22T19:40:18.568Z,9.70
2022-09-22T19:42:46.645Z,9.60
2022-09-22T19:45:15.732Z,9.64
2022-09-22T19:47:43.323Z,9.64
2022-09-22T19:50:10.928Z,9.63
2022-09-22T19:52:38.700Z,9.62
2022-09-22T19:55:07.396Z,9.64
2022-09-22T19:57:36.298Z,9.59
2022-09-22T20:00:04.013Z,9.49
2022-09-22T20:02:33.037Z,9.46
2022-09-22T20:05:00.602Z,9.40
2022-09-22T20:07:28.459Z,9.37
2022-09-22T20:09:56.408Z,9.26
2022-09-22T20:12:23.972Z,9.19
2022-09-22T20:14:51.729Z,9.16
2022-09-22T20:17:19.294Z,9.16
2022-09-22T20:19:48.227Z,9.13
2022-09-22T20:22:22.798Z,9.13
2022-09-22T20:24:54.032Z,9.12
2022-09-22T20:27:25.973Z,9.06
2022-09-22T20:29:56.976Z,8.99
2022-09-22T20:32:26.130Z,8.98
2022-09-22T20:34:55.943Z,8.93
2022-09-22T20:37:24.405Z,8.99
2022-09-22T20:39:52.105Z,8.98
2022-09-22T20:42:19.755Z,8.95
2022-09-22T20:44:49.077Z,8.95
2022-09-22T20:47:18.574Z,8.95
2022-09-22T20:49:51.357Z,8.99
2022-09-22T20:52:21.540Z,8.90
2022-09-22T20:54:49.725Z,8.88
2022-09-22T20:57:18.036Z,8.82
2022-09-22T20:59:46.349Z,8.76
2022-09-22T21:02:15.126Z,8.74
2022-09-22T21:04:43.113Z,8.71
2022-09-22T21:07:11.229Z,8.62
2022-09-22T21:09:57.662Z,8.63
2022-09-22T21:12:30.689Z,8.70
2022-09-22T21:14:58.917Z,8.70
2022-09-22T21:17:27.681Z,8.69
2022-09-22T21:19:56.345Z,8.64
2022-09-22T21:22:24.501Z,8.62
2022-09-22T21:24:53.986Z,8.60
2022-09-22T21:27:21.696Z,8.62
2022-09-22T21:29:49.330Z,8.65
2022-09-22T21:32:17.216Z,8.64
2022-09-22T21:34:44.853Z,8.59
2022-09-22T21:37:12.440Z,8.53
2022-09-22T21:39:40.114Z,8.47
2022-09-22T21:42:09.371Z,8.42
2022-09-22T21:44:37.044Z,8.23
2022-09-22T21:47:04.975Z,8.13
2022-09-22T21:49:33.037Z,8.12
2022-09-22T21:52:01.393Z,8.09
2022-09-22T21:54:31.177Z,8.13
2022-09-22T21:56:59.032Z,8.19
2022-09-22T21:59:29.135Z,8.22
2022-09-22T22:01:57.276Z,8.15
2022-09-22T22:04:25.413Z,8.12
2022-09-22T22:06:53.171Z,8.08
2022-09-22T22:09:22.527Z,8.04
2022-09-22T22:11:57.384Z,8.04
2022-09-22T22:14:27.212Z,7.98
2022-09-22T22:16:56.602Z,7.93
2022-09-22T22:19:26.999Z,7.92
2022-09-22T22:21:56.164Z,7.85
2022-09-22T22:24:39.391Z,7.83
2022-09-22T22:27:10.198Z,7.74
2022-09-22T22:29:39.624Z,7.76
2022-09-22T22:32:10.401Z,7.76
2022-09-22T22:34:38.265Z,7.74
2022-09-22T22:37:10.051Z,7.69
2022-09-22T22:39:37.766Z,7.72
2022-09-22T22:42:06.203Z,7.66
2022-09-22T22:44:35.135Z,7.64
2022-09-22T22:47:02.872Z,7.63
2022-09-22T22:49:32.561Z,7.61
2022-09-22T22:52:00.262Z,7.59
2022-09-22T22:54:27.941Z,7.58
2022-09-22T22:56:55.564Z,7.55
2022-09-22T22:59:23.292Z,7.50
2022-09-22T23:01:51.017Z,7.46
2022-09-22T23:04:18.691Z,7.44
2022-09-22T23:06:48.470Z,7.41
2022-09-22T23:09:17.787Z,7.36
2022-09-22T23:11:46.354Z,7.31
2022-09-22T23:14:16.139Z,7.30
2022-09-22T23:16:45.675Z,7.23
2022-09-22T23:19:14.853Z,7.18
2022-09-22T23:21:42.627Z,7.09
2022-09-22T23:24:15.363Z,7.05
2022-09-22T23:26:43.032Z,6.99
2022-09-22T23:29:10.853Z,6.93
2022-09-22T23:31:38.553Z,6.87
2022-09-22T23:34:06.237Z,6.88
2022-09-22T23:36:33.978Z,6.95
2022-09-22T23:39:03.524Z,6.93
2022-09-22T23:41:34.712Z,6.85
2022-09-22T23:44:03.527Z,6.84
2022-09-22T23:46:31.754Z,6.86
2022-09-22T23:49:00.494Z,6.86
2022-09-22T23:51:28.278Z,6.84
2022-09-22T23:53:56.249Z,6.77
2022-09-22T23:56:24.162Z,6.68
2022-09-22T23:58:53.788Z,6.68
